sensor_id;sensor_type;location;lat;lon;timestamp;temperature;humidity
32600;DHT22;19277;51.778;7.912;2023-03-26T00:00:41;20.10;72.20
32600;DHT22;19277;51.778;7.912;2023-03-26T00:03:11;20.20;72.20
32600;DHT22;19277;51.778;7.912;2023-03-26T00:05:38;20.20;72.20
32600;DHT22;19277;51.778;7.912;2023-03-26T00:08:04;20.20;72.20
32600;DHT22;19277;51.778;7.912;2023-03-26T00:10:36;20.20;72.20
32600;DHT22;19277;51.778;7.912;2023-03-26T00:13:04;20.30;72.30
32600;DHT22;19277;51.778;7.912;2023-03-26T00:15:30;20.30;72.30
32600;DHT22;19277;51.778;7.912;2023-03-26T00:17:56;20.30;72.30
32600;DHT22;19277;51.778;7.912;2023-03-26T00:20:22;20.30;72.30
32600;DHT22;19277;51.778;7.912;2023-03-26T00:22:48;20.30;72.30
32600;DHT22;19277;51.778;7.912;2023-03-26T00:25:15;20.30;72.30
32600;DHT22;19277;51.778;7.912;2023-03-26T00:27:41;20.40;72.40
32600;DHT22;19277;51.778;7.912;2023-03-26T00:30:07;20.40;72.40
32600;DHT22;19277;51.778;7.912;2023-03-26T00:32:32;20.40;72.40
32600;DHT22;19277;51.778;7.912;2023-03-26T00:34:58;20.40;72.40
32600;DHT22;19277;51.778;7.912;2023-03-26T00:37:26;20.40;72.40
32600;DHT22;19277;51.778;7.912;2023-03-26T00:39:55;20.40;72.50
32600;DHT22;19277;51.778;7.912;2023-03-26T00:42:27;20.40;72.50
32600;DHT22;19277;51.778;7.912;2023-03-26T00:44:53;20.40;72.50
32600;DHT22;19277;51.778;7.912;2023-03-26T00:47:28;20.50;72.50
32600;DHT22;19277;51.778;7.912;2023-03-26T00:49:54;20.50;72.60
32600;DHT22;19277;51.778;7.912;2023-03-26T00:52:20;20.50;72.50
32600;DHT22;19277;51.778;7.912;2023-03-26T00:54:47;20.50;72.50
32600;DHT22;19277;51.778;7.912;2023-03-26T00:57:15;20.50;72.60
32600;DHT22;19277;51.778;7.912;2023-03-26T00:59:41;20.50;72.60
32600;DHT22;19277;51.778;7.912;2023-03-26T01:02:11;20.50;72.60
32600;DHT22;19277;51.778;7.912;2023-03-26T01:04:44;20.50;72.60
32600;DHT22;19277;51.778;7.912;2023-03-26T01:07:13;20.50;72.60
32600;DHT22;19277;51.778;7.912;2023-03-26T01:09:43;20.50;72.70
32600;DHT22;19277;51.778;7.912;2023-03-26T01:12:16;20.50;72.70
32600;DHT22;19277;51.778;7.912;2023-03-26T01:14:44;20.50;72.70
32600;DHT22;19277;51.778;7.912;2023-03-26T01:17:10;20.50;72.70
32600;DHT22;19277;51.778;7.912;2023-03-26T01:22:17;20.50;72.70
32600;DHT22;19277;51.778;7.912;2023-03-26T01:24:43;20.60;72.80
32600;DHT22;19277;51.778;7.912;2023-03-26T01:27:22;20.60;72.80
32600;DHT22;19277;51.778;7.912;2023-03-26T01:30:14;20.60;72.80
32600;DHT22;19277;51.778;7.912;2023-03-26T01:33:05;20.60;72.80
32600;DHT22;19277;51.778;7.912;2023-03-26T01:36:04;20.60;72.80
32600;DHT22;19277;51.778;7.912;2023-03-26T01:38:38;20.60;72.90
32600;DHT22;19277;51.778;7.912;2023-03-26T01:41:41;20.60;72.90
32600;DHT22;19277;51.778;7.912;2023-03-26T01:44:03;20.60;72.90
32600;DHT22;19277;51.778;7.912;2023-03-26T01:46:33;20.60;72.90
32600;DHT22;19277;51.778;7.912;2023-03-26T01:49:04;20.60;72.90
32600;DHT22;19277;51.778;7.912;2023-03-26T01:51:33;20.60;72.90
32600;DHT22;19277;51.778;7.912;2023-03-26T01:54:03;20.60;72.90
32600;DHT22;19277;51.778;7.912;2023-03-26T01:56:37;20.60;72.90
32600;DHT22;19277;51.778;7.912;2023-03-26T02:04:59;20.60;73.30
32600;DHT22;19277;51.778;7.912;2023-03-26T02:07:32;20.60;73.50
32600;DHT22;19277;51.778;7.912;2023-03-26T02:10:10;20.60;73.70
32600;DHT22;19277;51.778;7.912;2023-03-26T02:12:38;20.70;73.70
32600;DHT22;19277;51.778;7.912;2023-03-26T02:15:04;20.70;73.80
32600;DHT22;19277;51.778;7.912;2023-03-26T02:17:30;20.70;73.80
32600;DHT22;19277;51.778;7.912;2023-03-26T02:19:57;20.70;73.90
32600;DHT22;19277;51.778;7.912;2023-03-26T02:22:22;20.70;73.90
32600;DHT22;19277;51.778;7.912;2023-03-26T02:24:54;20.70;73.80
32600;DHT22;19277;51.778;7.912;2023-03-26T02:27:20;20.70;73.90
32600;DHT22;19277;51.778;7.912;2023-03-26T02:29:45;20.70;73.80
32600;DHT22;19277;51.778;7.912;2023-03-26T02:32:12;20.70;73.80
32600;DHT22;19277;51.778;7.912;2023-03-26T02:34:41;20.70;74.00
32600;DHT22;19277;51.778;7.912;2023-03-26T02:37:07;20.70;74.00
32600;DHT22;19277;51.778;7.912;2023-03-26T02:39:34;20.70;74.10
32600;DHT22;19277;51.778;7.912;2023-03-26T02:41:59;20.70;74.10
32600;DHT22;19277;51.778;7.912;2023-03-26T02:44:25;20.70;74.20
32600;DHT22;19277;51.778;7.912;2023-03-26T02:46:51;20.70;74.10
32600;DHT22;19277;51.778;7.912;2023-03-26T02:49:17;20.70;74.20
32600;DHT22;19277;51.778;7.912;2023-03-26T02:51:43;20.70;74.40
32600;DHT22;19277;51.778;7.912;2023-03-26T02:54:08;20.70;74.60
32600;DHT22;19277;51.778;7.912;2023-03-26T02:56:34;20.70;74.50
32600;DHT22;19277;51.778;7.912;2023-03-26T02:59:00;20.70;74.60
32600;DHT22;19277;51.778;7.912;2023-03-26T03:01:25;20.70;74.70
32600;DHT22;19277;51.778;7.912;2023-03-26T03:03:55;20.70;74.70
32600;DHT22;19277;51.778;7.912;2023-03-26T03:06:20;20.70;74.80
32600;DHT22;19277;51.778;7.912;2023-03-26T03:08:46;20.70;74.70
32600;DHT22;19277;51.778;7.912;2023-03-26T03:11:17;20.70;74.50
32600;DHT22;19277;51.778;7.912;2023-03-26T03:13:46;20.70;74.40
32600;DHT22;19277;51.778;7.912;2023-03-26T03:16:11;20.70;74.30
32600;DHT22;19277;51.778;7.912;2023-03-26T03:18:37;20.70;74.20
32600;DHT22;19277;51.778;7.912;2023-03-26T03:21:04;20.70;74.40
32600;DHT22;19277;51.778;7.912;2023-03-26T03:23:30;20.80;74.40
32600;DHT22;19277;51.778;7.912;2023-03-26T03:25:56;20.80;74.40
32600;DHT22;19277;51.778;7.912;2023-03-26T03:28:23;20.80;74.50
32600;DHT22;19277;51.778;7.912;2023-03-26T03:30:49;20.80;74.40
32600;DHT22;19277;51.778;7.912;2023-03-26T03:33:19;20.80;74.30
32600;DHT22;19277;51.778;7.912;2023-03-26T03:35:46;20.80;74.50
32600;DHT22;19277;51.778;7.912;2023-03-26T03:38:12;20.80;74.40
32600;DHT22;19277;51.778;7.912;2023-03-26T03:40:37;20.80;74.30
32600;DHT22;19277;51.778;7.912;2023-03-26T03:43:03;20.80;74.30
32600;DHT22;19277;51.778;7.912;2023-03-26T03:45:29;20.80;74.30
32600;DHT22;19277;51.778;7.912;2023-03-26T03:47:54;20.80;74.30
32600;DHT22;19277;51.778;7.912;2023-03-26T03:50:20;20.80;74.40
32600;DHT22;19277;51.778;7.912;2023-03-26T03:52:46;20.80;74.40
32600;DHT22;19277;51.778;7.912;2023-03-26T03:55:11;20.80;74.40
32600;DHT22;19277;51.778;7.912;2023-03-26T03:57:38;20.80;74.40
32600;DHT22;19277;51.778;7.912;2023-03-26T04:00:05;20.70;74.40
32600;DHT22;19277;51.778;7.912;2023-03-26T04:02:33;20.80;74.50
32600;DHT22;19277;51.778;7.912;2023-03-26T04:05:00;20.70;74.30
32600;DHT22;19277;51.778;7.912;2023-03-26T04:07:28;20.70;74.30
32600;DHT22;19277;51.778;7.912;2023-03-26T04:10:00;20.70;74.30
32600;DHT22;19277;51.778;7.912;2023-03-26T04:12:29;20.70;74.30
32600;DHT22;19277;51.778;7.912;2023-03-26T04:14:56;20.70;74.20
32600;DHT22;19277;51.778;7.912;2023-03-26T04:17:22;20.70;74.30
32600;DHT22;19277;51.778;7.912;2023-03-26T04:19:48;20.70;74.30
32600;DHT22;19277;51.778;7.912;2023-03-26T04:22:15;20.70;74.40
32600;DHT22;19277;51.778;7.912;2023-03-26T04:24:42;20.80;74.40
32600;DHT22;19277;51.778;7.912;2023-03-26T04:27:13;20.80;74.40
32600;DHT22;19277;51.778;7.912;2023-03-26T04:29:42;20.80;74.40
32600;DHT22;19277;51.778;7.912;2023-03-26T04:32:22;20.80;74.40
32600;DHT22;19277;51.778;7.912;2023-03-26T04:34:57;20.80;74.40
32600;DHT22;19277;51.778;7.912;2023-03-26T04:37:36;20.80;74.40
32600;DHT22;19277;51.778;7.912;2023-03-26T04:40:10;20.80;74.40
32600;DHT22;19277;51.778;7.912;2023-03-26T04:42:37;20.80;74.40
32600;DHT22;19277;51.778;7.912;2023-03-26T04:45:06;20.80;74.50
32600;DHT22;19277;51.778;7.912;2023-03-26T04:47:32;20.80;74.50
32600;DHT22;19277;51.778;7.912;2023-03-26T04:50:06;20.80;75.00
32600;DHT22;19277;51.778;7.912;2023-03-26T04:52:32;20.80;75.00
32600;DHT22;19277;51.778;7.912;2023-03-26T04:54:59;20.80;74.90
32600;DHT22;19277;51.778;7.912;2023-03-26T04:57:38;20.80;75.00
32600;DHT22;19277;51.778;7.912;2023-03-26T05:00:08;20.90;75.00
32600;DHT22;19277;51.778;7.912;2023-03-26T05:02:41;20.90;75.00
32600;DHT22;19277;51.778;7.912;2023-03-26T05:05:08;20.90;75.10
32600;DHT22;19277;51.778;7.912;2023-03-26T05:07:35;20.90;74.80
32600;DHT22;19277;51.778;7.912;2023-03-26T05:10:01;20.90;74.80
32600;DHT22;19277;51.778;7.912;2023-03-26T05:12:28;20.90;74.80
32600;DHT22;19277;51.778;7.912;2023-03-26T05:14:54;20.90;74.70
32600;DHT22;19277;51.778;7.912;2023-03-26T05:17:21;20.90;74.70
32600;DHT22;19277;51.778;7.912;2023-03-26T05:19:47;20.90;74.60
32600;DHT22;19277;51.778;7.912;2023-03-26T05:22:13;20.90;74.60
32600;DHT22;19277;51.778;7.912;2023-03-26T05:24:38;20.90;74.60
32600;DHT22;19277;51.778;7.912;2023-03-26T05:27:04;20.90;74.60
32600;DHT22;19277;51.778;7.912;2023-03-26T05:29:29;20.90;74.60
32600;DHT22;19277;51.778;7.912;2023-03-26T05:31:55;21.00;74.60
32600;DHT22;19277;51.778;7.912;2023-03-26T05:34:20;21.00;74.60
32600;DHT22;19277;51.778;7.912;2023-03-26T05:36:50;21.00;74.60
32600;DHT22;19277;51.778;7.912;2023-03-26T05:39:16;20.90;74.60
32600;DHT22;19277;51.778;7.912;2023-03-26T05:41:42;20.90;74.70
32600;DHT22;19277;51.778;7.912;2023-03-26T05:44:07;20.90;74.90
32600;DHT22;19277;51.778;7.912;2023-03-26T05:46:33;20.90;74.90
32600;DHT22;19277;51.778;7.912;2023-03-26T05:48:58;20.90;75.00
32600;DHT22;19277;51.778;7.912;2023-03-26T05:51:24;20.90;75.00
32600;DHT22;19277;51.778;7.912;2023-03-26T05:53:50;20.90;75.00
32600;DHT22;19277;51.778;7.912;2023-03-26T05:56:16;20.90;75.10
32600;DHT22;19277;51.778;7.912;2023-03-26T05:58:41;20.90;75.10
32600;DHT22;19277;51.778;7.912;2023-03-26T06:01:09;20.90;75.20
32600;DHT22;19277;51.778;7.912;2023-03-26T06:03:42;20.90;75.10
32600;DHT22;19277;51.778;7.912;2023-03-26T06:06:11;20.90;75.00
32600;DHT22;19277;51.778;7.912;2023-03-26T06:08:43;20.90;74.90
32600;DHT22;19277;51.778;7.912;2023-03-26T06:11:11;21.00;74.80
32600;DHT22;19277;51.778;7.912;2023-03-26T06:13:37;21.00;74.80
32600;DHT22;19277;51.778;7.912;2023-03-26T06:16:04;21.00;74.70
32600;DHT22;19277;51.778;7.912;2023-03-26T06:18:30;21.00;74.60
32600;DHT22;19277;51.778;7.912;2023-03-26T06:20:55;21.00;74.60
32600;DHT22;19277;51.778;7.912;2023-03-26T06:23:21;21.00;74.60
32600;DHT22;19277;51.778;7.912;2023-03-26T06:25:47;21.00;74.80
32600;DHT22;19277;51.778;7.912;2023-03-26T06:28:14;21.10;75.10
32600;DHT22;19277;51.778;7.912;2023-03-26T06:30:40;21.10;75.10
32600;DHT22;19277;51.778;7.912;2023-03-26T06:33:05;21.10;75.10
32600;DHT22;19277;51.778;7.912;2023-03-26T06:35:31;21.10;75.10
32600;DHT22;19277;51.778;7.912;2023-03-26T06:37:57;21.10;75.10
32600;DHT22;19277;51.778;7.912;2023-03-26T06:40:23;21.10;75.10
32600;DHT22;19277;51.778;7.912;2023-03-26T06:42:49;21.10;75.20
32600;DHT22;19277;51.778;7.912;2023-03-26T06:45:15;21.00;75.20
32600;DHT22;19277;51.778;7.912;2023-03-26T06:47:41;21.10;75.30
32600;DHT22;19277;51.778;7.912;2023-03-26T06:50:07;21.00;75.50
32600;DHT22;19277;51.778;7.912;2023-03-26T06:52:33;21.00;75.70
32600;DHT22;19277;51.778;7.912;2023-03-26T06:54:58;21.00;75.90
32600;DHT22;19277;51.778;7.912;2023-03-26T06:57:24;21.00;76.10
32600;DHT22;19277;51.778;7.912;2023-03-26T06:59:50;21.00;76.30
32600;DHT22;19277;51.778;7.912;2023-03-26T07:02:15;21.10;76.30
32600;DHT22;19277;51.778;7.912;2023-03-26T07:04:41;21.10;76.40
32600;DHT22;19277;51.778;7.912;2023-03-26T07:07:07;21.10;76.30
32600;DHT22;19277;51.778;7.912;2023-03-26T07:09:32;21.10;76.20
32600;DHT22;19277;51.778;7.912;2023-03-26T07:11:58;21.10;76.10
32600;DHT22;19277;51.778;7.912;2023-03-26T07:14:24;21.10;75.90
32600;DHT22;19277;51.778;7.912;2023-03-26T07:16:50;21.10;76.10
32600;DHT22;19277;51.778;7.912;2023-03-26T07:19:16;21.10;76.10
32600;DHT22;19277;51.778;7.912;2023-03-26T07:21:42;21.10;76.10
32600;DHT22;19277;51.778;7.912;2023-03-26T07:24:10;21.10;76.10
32600;DHT22;19277;51.778;7.912;2023-03-26T07:29:31;21.20;76.20
32600;DHT22;19277;51.778;7.912;2023-03-26T07:32:24;21.20;76.30
32600;DHT22;19277;51.778;7.912;2023-03-26T07:46:00;21.20;76.90
32600;DHT22;19277;51.778;7.912;2023-03-26T07:48:39;21.20;77.00
32600;DHT22;19277;51.778;7.912;2023-03-26T07:51:06;21.20;77.20
32600;DHT22;19277;51.778;7.912;2023-03-26T07:53:31;21.20;77.20
32600;DHT22;19277;51.778;7.912;2023-03-26T07:56:09;21.20;77.10
32600;DHT22;19277;51.778;7.912;2023-03-26T08:04:49;21.20;77.30
32600;DHT22;19277;51.778;7.912;2023-03-26T08:07:43;21.20;77.00
32600;DHT22;19277;51.778;7.912;2023-03-26T08:10:36;21.20;77.10
32600;DHT22;19277;51.778;7.912;2023-03-26T08:16:06;21.20;76.70
32600;DHT22;19277;51.778;7.912;2023-03-26T08:21:18;21.30;76.60
32600;DHT22;19277;51.778;7.912;2023-03-26T08:24:07;21.40;76.40
32600;DHT22;19277;51.778;7.912;2023-03-26T08:26:46;21.40;76.20
32600;DHT22;19277;51.778;7.912;2023-03-26T08:29:33;21.40;76.20
32600;DHT22;19277;51.778;7.912;2023-03-26T08:32:03;21.40;76.10
32600;DHT22;19277;51.778;7.912;2023-03-26T08:34:29;21.40;76.00
32600;DHT22;19277;51.778;7.912;2023-03-26T08:36:54;21.50;75.90
32600;DHT22;19277;51.778;7.912;2023-03-26T08:39:20;21.50;75.80
32600;DHT22;19277;51.778;7.912;2023-03-26T08:41:58;21.50;75.80
32600;DHT22;19277;51.778;7.912;2023-03-26T08:50:57;21.60;75.60
32600;DHT22;19277;51.778;7.912;2023-03-26T08:56:23;21.60;75.40
32600;DHT22;19277;51.778;7.912;2023-03-26T09:02:21;21.60;73.60
32600;DHT22;19277;51.778;7.912;2023-03-26T09:27:58;20.10;71.40
32600;DHT22;19277;51.778;7.912;2023-03-26T09:33:53;20.10;70.90
32600;DHT22;19277;51.778;7.912;2023-03-26T09:42:05;20.00;70.80
32600;DHT22;19277;51.778;7.912;2023-03-26T09:50:47;20.20;71.30
32600;DHT22;19277;51.778;7.912;2023-03-26T09:53:56;20.20;71.00
32600;DHT22;19277;51.778;7.912;2023-03-26T10:02:44;20.30;69.90
32600;DHT22;19277;51.778;7.912;2023-03-26T10:10:56;20.20;70.40
32600;DHT22;19277;51.778;7.912;2023-03-26T10:13:59;20.10;70.10
32600;DHT22;19277;51.778;7.912;2023-03-26T10:17:01;20.10;71.00
32600;DHT22;19277;51.778;7.912;2023-03-26T10:27:33;20.00;70.90
32600;DHT22;19277;51.778;7.912;2023-03-26T10:33:21;20.00;70.40
32600;DHT22;19277;51.778;7.912;2023-03-26T10:38:52;20.00;70.80
32600;DHT22;19277;51.778;7.912;2023-03-26T10:41:37;20.00;70.80
32600;DHT22;19277;51.778;7.912;2023-03-26T10:44:29;19.90;70.70
32600;DHT22;19277;51.778;7.912;2023-03-26T10:52:48;19.90;70.80
32600;DHT22;19277;51.778;7.912;2023-03-26T10:55:36;19.90;70.80
32600;DHT22;19277;51.778;7.912;2023-03-26T10:58:22;19.90;70.70
32600;DHT22;19277;51.778;7.912;2023-03-26T11:01:04;20.00;70.40
32600;DHT22;19277;51.778;7.912;2023-03-26T11:03:52;20.00;70.30
32600;DHT22;19277;51.778;7.912;2023-03-26T11:08:56;19.90;70.70
32600;DHT22;19277;51.778;7.912;2023-03-26T11:14:20;19.90;70.70
32600;DHT22;19277;51.778;7.912;2023-03-26T11:17:04;19.90;70.50
32600;DHT22;19277;51.778;7.912;2023-03-26T11:19:45;19.90;70.80
32600;DHT22;19277;51.778;7.912;2023-03-26T11:25:16;19.80;69.90
32600;DHT22;19277;51.778;7.912;2023-03-26T11:27:51;19.70;70.00
32600;DHT22;19277;51.778;7.912;2023-03-26T11:30:47;19.70;69.70
32600;DHT22;19277;51.778;7.912;2023-03-26T11:33:25;19.60;69.30
32600;DHT22;19277;51.778;7.912;2023-03-26T11:35:57;19.50;69.50
32600;DHT22;19277;51.778;7.912;2023-03-26T11:38:27;19.60;69.50
32600;DHT22;19277;51.778;7.912;2023-03-26T11:40:58;19.50;70.10
32600;DHT22;19277;51.778;7.912;2023-03-26T11:43:31;19.60;70.20
32600;DHT22;19277;51.778;7.912;2023-03-26T11:45:58;19.60;70.40
32600;DHT22;19277;51.778;7.912;2023-03-26T11:48:44;19.70;70.10
32600;DHT22;19277;51.778;7.912;2023-03-26T11:51:36;19.70;70.20
32600;DHT22;19277;51.778;7.912;2023-03-26T11:54:04;19.60;70.10
32600;DHT22;19277;51.778;7.912;2023-03-26T11:56:48;19.60;69.90
32600;DHT22;19277;51.778;7.912;2023-03-26T11:59:37;19.60;69.50
32600;DHT22;19277;51.778;7.912;2023-03-26T12:04:37;19.60;68.80
32600;DHT22;19277;51.778;7.912;2023-03-26T12:07:32;19.70;69.60
32600;DHT22;19277;51.778;7.912;2023-03-26T12:10:00;19.60;69.10
32600;DHT22;19277;51.778;7.912;2023-03-26T12:12:39;19.70;68.70
32600;DHT22;19277;51.778;7.912;2023-03-26T12:15:13;19.70;69.60
32600;DHT22;19277;51.778;7.912;2023-03-26T12:17:40;19.70;69.30
32600;DHT22;19277;51.778;7.912;2023-03-26T12:20:31;19.70;69.30
32600;DHT22;19277;51.778;7.912;2023-03-26T12:23:02;19.70;69.20
32600;DHT22;19277;51.778;7.912;2023-03-26T12:25:34;19.70;69.50
32600;DHT22;19277;51.778;7.912;2023-03-26T12:30:31;19.60;68.50
32600;DHT22;19277;51.778;7.912;2023-03-26T12:33:14;19.70;69.10
32600;DHT22;19277;51.778;7.912;2023-03-26T12:35:41;19.70;69.30
32600;DHT22;19277;51.778;7.912;2023-03-26T12:38:21;19.70;68.20
32600;DHT22;19277;51.778;7.912;2023-03-26T12:40:48;19.80;67.10
32600;DHT22;19277;51.778;7.912;2023-03-26T12:48:51;19.90;68.00
32600;DHT22;19277;51.778;7.912;2023-03-26T12:54:52;19.80;68.00
32600;DHT22;19277;51.778;7.912;2023-03-26T12:57:18;19.90;68.50
32600;DHT22;19277;51.778;7.912;2023-03-26T13:12:24;19.90;68.00
32600;DHT22;19277;51.778;7.912;2023-03-26T13:17:50;19.90;68.10
32600;DHT22;19277;51.778;7.912;2023-03-26T13:23:52;19.90;67.70
32600;DHT22;19277;51.778;7.912;2023-03-26T13:34:24;19.80;68.90
32600;DHT22;19277;51.778;7.912;2023-03-26T13:48:03;20.80;70.60
32600;DHT22;19277;51.778;7.912;2023-03-26T13:50:36;20.90;70.70
32600;DHT22;19277;51.778;7.912;2023-03-26T13:53:19;21.00;70.70
32600;DHT22;19277;51.778;7.912;2023-03-26T13:55:55;21.10;70.60
32600;DHT22;19277;51.778;7.912;2023-03-26T13:58:42;21.10;70.50
32600;DHT22;19277;51.778;7.912;2023-03-26T14:01:09;21.20;70.60
32600;DHT22;19277;51.778;7.912;2023-03-26T14:06:32;21.30;70.70
32600;DHT22;19277;51.778;7.912;2023-03-26T14:14:49;21.40;70.80
32600;DHT22;19277;51.778;7.912;2023-03-26T14:20:03;21.30;71.00
32600;DHT22;19277;51.778;7.912;2023-03-26T14:23:08;21.30;71.20
32600;DHT22;19277;51.778;7.912;2023-03-26T14:30:53;21.20;71.70
32600;DHT22;19277;51.778;7.912;2023-03-26T14:33:41;21.20;71.70
32600;DHT22;19277;51.778;7.912;2023-03-26T14:41:50;21.30;71.90
32600;DHT22;19277;51.778;7.912;2023-03-26T14:45:03;21.30;72.00
32600;DHT22;19277;51.778;7.912;2023-03-26T14:47:20;21.30;72.10
32600;DHT22;19277;51.778;7.912;2023-03-26T14:52:49;21.30;72.20
32600;DHT22;19277;51.778;7.912;2023-03-26T14:55:41;21.30;72.10
32600;DHT22;19277;51.778;7.912;2023-03-26T15:01:27;21.30;72.30
32600;DHT22;19277;51.778;7.912;2023-03-26T15:11:56;21.30;72.60
32600;DHT22;19277;51.778;7.912;2023-03-26T15:23:13;21.30;72.10
32600;DHT22;19277;51.778;7.912;2023-03-26T15:34:55;21.30;72.80
32600;DHT22;19277;51.778;7.912;2023-03-26T15:37:55;21.30;72.90
32600;DHT22;19277;51.778;7.912;2023-03-26T15:40:42;21.40;73.00
32600;DHT22;19277;51.778;7.912;2023-03-26T15:43:17;21.40;73.00
32600;DHT22;19277;51.778;7.912;2023-03-26T15:49:20;21.40;73.00
32600;DHT22;19277;51.778;7.912;2023-03-26T15:51:30;21.40;73.00
32600;DHT22;19277;51.778;7.912;2023-03-26T15:54:07;21.50;73.00
32600;DHT22;19277;51.778;7.912;2023-03-26T16:11:02;21.60;73.10
32600;DHT22;19277;51.778;7.912;2023-03-26T16:29:23;21.70;72.90
32600;DHT22;19277;51.778;7.912;2023-03-26T16:35:32;21.70;72.80
32600;DHT22;19277;51.778;7.912;2023-03-26T16:38:10;21.70;72.70
32600;DHT22;19277;51.778;7.912;2023-03-26T16:43:28;21.70;72.60
32600;DHT22;19277;51.778;7.912;2023-03-26T16:48:43;21.70;72.60
32600;DHT22;19277;51.778;7.912;2023-03-26T16:59:43;21.60;72.50
32600;DHT22;19277;51.778;7.912;2023-03-26T17:05:40;21.60;72.50
32600;DHT22;19277;51.778;7.912;2023-03-26T17:11:08;21.60;72.60
32600;DHT22;19277;51.778;7.912;2023-03-26T17:16:24;21.60;72.70
32600;DHT22;19277;51.778;7.912;2023-03-26T17:21:53;21.60;72.80
32600;DHT22;19277;51.778;7.912;2023-03-26T17:35:44;21.60;73.00
32600;DHT22;19277;51.778;7.912;2023-03-26T17:40:54;21.30;57.70
32600;DHT22;19277;51.778;7.912;2023-03-26T17:46:30;17.10;61.40
32600;DHT22;19277;51.778;7.912;2023-03-26T17:49:26;15.80;64.00
32600;DHT22;19277;51.778;7.912;2023-03-26T17:51:59;14.70;67.40
32600;DHT22;19277;51.778;7.912;2023-03-26T17:57:01;13.70;69.60
32600;DHT22;19277;51.778;7.912;2023-03-26T17:59:27;13.60;70.30
32600;DHT22;19277;51.778;7.912;2023-03-26T18:01:57;13.40;70.10
32600;DHT22;19277;51.778;7.912;2023-03-26T18:04:34;13.30;69.80
32600;DHT22;19277;51.778;7.912;2023-03-26T18:15:35;13.00;68.40
32600;DHT22;19277;51.778;7.912;2023-03-26T18:20:57;12.90;67.50
32600;DHT22;19277;51.778;7.912;2023-03-26T18:23:29;12.70;67.50
32600;DHT22;19277;51.778;7.912;2023-03-26T18:26:15;12.60;70.40
32600;DHT22;19277;51.778;7.912;2023-03-26T18:28:52;13.30;75.70
32600;DHT22;19277;51.778;7.912;2023-03-26T18:31:26;14.30;75.00
32600;DHT22;19277;51.778;7.912;2023-03-26T18:33:57;15.30;73.70
32600;DHT22;19277;51.778;7.912;2023-03-26T18:36:27;16.10;72.30
32600;DHT22;19277;51.778;7.912;2023-03-26T18:38:58;16.80;71.20
32600;DHT22;19277;51.778;7.912;2023-03-26T18:41:31;17.40;71.00
32600;DHT22;19277;51.778;7.912;2023-03-26T18:44:04;17.80;70.20
32600;DHT22;19277;51.778;7.912;2023-03-26T18:46:32;18.20;69.70
32600;DHT22;19277;51.778;7.912;2023-03-26T18:49:02;18.50;69.30
32600;DHT22;19277;51.778;7.912;2023-03-26T18:51:29;18.80;69.00
32600;DHT22;19277;51.778;7.912;2023-03-26T18:53:57;19.00;68.90
32600;DHT22;19277;51.778;7.912;2023-03-26T18:56:33;19.10;68.70
32600;DHT22;19277;51.778;7.912;2023-03-26T18:59:01;19.20;68.70
32600;DHT22;19277;51.778;7.912;2023-03-26T19:01:29;19.40;68.70
32600;DHT22;19277;51.778;7.912;2023-03-26T19:03:57;19.50;68.70
32600;DHT22;19277;51.778;7.912;2023-03-26T19:06:26;19.60;68.70
32600;DHT22;19277;51.778;7.912;2023-03-26T19:08:53;19.70;68.80
32600;DHT22;19277;51.778;7.912;2023-03-26T19:11:19;19.80;68.80
32600;DHT22;19277;51.778;7.912;2023-03-26T19:13:57;19.90;68.80
32600;DHT22;19277;51.778;7.912;2023-03-26T19:16:25;19.90;68.80
32600;DHT22;19277;51.778;7.912;2023-03-26T19:18:52;20.00;68.90
32600;DHT22;19277;51.778;7.912;2023-03-26T19:21:19;20.10;69.00
32600;DHT22;19277;51.778;7.912;2023-03-26T19:23:48;20.10;69.10
32600;DHT22;19277;51.778;7.912;2023-03-26T19:26:16;20.20;69.20
32600;DHT22;19277;51.778;7.912;2023-03-26T19:28:47;20.20;69.20
32600;DHT22;19277;51.778;7.912;2023-03-26T19:31:22;20.30;69.40
32600;DHT22;19277;51.778;7.912;2023-03-26T19:36:31;20.30;69.40
32600;DHT22;19277;51.778;7.912;2023-03-26T19:41:25;20.30;69.40
32600;DHT22;19277;51.778;7.912;2023-03-26T19:43:57;20.40;69.50
32600;DHT22;19277;51.778;7.912;2023-03-26T19:46:24;20.40;69.50
32600;DHT22;19277;51.778;7.912;2023-03-26T19:48:52;20.40;69.50
32600;DHT22;19277;51.778;7.912;2023-03-26T19:51:24;20.50;69.50
32600;DHT22;19277;51.778;7.912;2023-03-26T19:53:58;20.40;69.50
32600;DHT22;19277;51.778;7.912;2023-03-26T19:56:25;20.50;69.50
32600;DHT22;19277;51.778;7.912;2023-03-26T19:58:52;20.50;69.60
32600;DHT22;19277;51.778;7.912;2023-03-26T20:03:58;20.50;69.60
32600;DHT22;19277;51.778;7.912;2023-03-26T20:06:24;20.50;69.60
32600;DHT22;19277;51.778;7.912;2023-03-26T20:08:53;20.50;69.60
32600;DHT22;19277;51.778;7.912;2023-03-26T20:11:34;20.50;69.60
32600;DHT22;19277;51.778;7.912;2023-03-26T20:14:11;20.60;69.60
32600;DHT22;19277;51.778;7.912;2023-03-26T20:16:37;20.60;69.60
32600;DHT22;19277;51.778;7.912;2023-03-26T20:19:02;20.60;69.60
32600;DHT22;19277;51.778;7.912;2023-03-26T20:21:30;20.60;69.70
32600;DHT22;19277;51.778;7.912;2023-03-26T20:24:00;20.60;69.80
32600;DHT22;19277;51.778;7.912;2023-03-26T20:26:25;20.60;69.90
32600;DHT22;19277;51.778;7.912;2023-03-26T20:28:52;20.60;69.90
32600;DHT22;19277;51.778;7.912;2023-03-26T20:31:20;20.60;70.00
32600;DHT22;19277;51.778;7.912;2023-03-26T20:33:48;20.70;70.10
32600;DHT22;19277;51.778;7.912;2023-03-26T20:36:14;20.60;70.10
32600;DHT22;19277;51.778;7.912;2023-03-26T20:38:41;20.70;70.20
32600;DHT22;19277;51.778;7.912;2023-03-26T20:41:21;20.70;70.20
32600;DHT22;19277;51.778;7.912;2023-03-26T20:43:51;20.70;70.30
32600;DHT22;19277;51.778;7.912;2023-03-26T20:46:22;20.70;70.40
32600;DHT22;19277;51.778;7.912;2023-03-26T20:48:48;20.70;70.40
32600;DHT22;19277;51.778;7.912;2023-03-26T20:51:15;20.70;70.50
32600;DHT22;19277;51.778;7.912;2023-03-26T20:53:42;20.70;70.60
32600;DHT22;19277;51.778;7.912;2023-03-26T20:56:18;20.70;70.90
32600;DHT22;19277;51.778;7.912;2023-03-26T20:58:45;20.70;71.10
32600;DHT22;19277;51.778;7.912;2023-03-26T21:01:13;20.70;71.20
32600;DHT22;19277;51.778;7.912;2023-03-26T21:03:41;20.80;71.30
32600;DHT22;19277;51.778;7.912;2023-03-26T21:06:10;20.80;71.30
32600;DHT22;19277;51.778;7.912;2023-03-26T21:08:40;20.80;71.80
32600;DHT22;19277;51.778;7.912;2023-03-26T21:13:57;20.80;71.30
32600;DHT22;19277;51.778;7.912;2023-03-26T21:16:24;20.80;71.30
32600;DHT22;19277;51.778;7.912;2023-03-26T21:18:51;20.90;71.40
32600;DHT22;19277;51.778;7.912;2023-03-26T21:21:39;20.90;71.50
32600;DHT22;19277;51.778;7.912;2023-03-26T21:24:33;20.90;71.50
32600;DHT22;19277;51.778;7.912;2023-03-26T21:27:23;20.90;71.50
32600;DHT22;19277;51.778;7.912;2023-03-26T21:29:53;20.90;71.60
32600;DHT22;19277;51.778;7.912;2023-03-26T21:32:19;20.90;71.60